createdAt,value
2018-07-11T00:00:00.905Z,6.60
2018-07-11T00:01:01.199Z,6.50
2018-07-11T00:02:01.214Z,6.80
2018-07-11T00:03:01.251Z,6.20
2018-07-11T00:04:01.270Z,6.60
2018-07-11T00:05:01.369Z,6.80
2018-07-11T00:06:01.141Z,6.80
2018-07-11T00:07:01.095Z,6.00
2018-07-11T00:08:01.137Z,6.90
2018-07-11T00:09:01.113Z,6.30
2018-07-11T00:10:01.123Z,5.80
2018-07-11T00:11:01.173Z,6.80
2018-07-11T00:12:01.126Z,6.20
2018-07-11T00:13:01.206Z,6.70
2018-07-11T00:14:00.784Z,6.50
2018-07-11T00:15:01.168Z,6.70
2018-07-11T00:16:01.207Z,6.40
2018-07-11T00:17:01.275Z,6.50
2018-07-11T00:18:01.195Z,6.80
2018-07-11T00:19:01.226Z,6.60
2018-07-11T00:20:01.144Z,6.60
2018-07-11T00:21:01.162Z,6.80
2018-07-11T00:22:01.194Z,6.50
2018-07-11T00:23:01.213Z,6.70
2018-07-11T00:24:01.172Z,7.30
2018-07-11T00:25:01.180Z,7.10
2018-07-11T00:26:01.217Z,6.90
2018-07-11T00:27:01.222Z,6.70
2018-07-11T00:28:01.188Z,7.70
2018-07-11T00:29:01.245Z,7.30
2018-07-11T00:30:01.155Z,6.80
2018-07-11T00:31:01.205Z,6.70
2018-07-11T00:32:01.115Z,6.90
2018-07-11T00:33:01.169Z,7.00
2018-07-11T00:34:01.203Z,7.00
2018-07-11T00:35:01.165Z,7.20
2018-07-11T00:36:01.203Z,6.60
2018-07-11T00:37:01.223Z,6.60
2018-07-11T00:38:01.116Z,6.80
2018-07-11T00:39:01.158Z,7.10
2018-07-11T00:40:01.164Z,7.20
2018-07-11T00:41:01.150Z,6.80
2018-07-11T00:42:01.111Z,6.60
2018-07-11T00:43:01.109Z,7.40
2018-07-11T00:44:01.102Z,6.90
2018-07-11T00:45:01.143Z,7.00
2018-07-11T00:46:01.224Z,6.70
2018-07-11T00:47:01.102Z,7.60
2018-07-11T00:48:01.128Z,7.40
2018-07-11T00:49:01.111Z,7.00
2018-07-11T00:50:01.195Z,7.10
2018-07-11T00:51:01.140Z,6.60
2018-07-11T00:52:01.149Z,6.50
2018-07-11T00:53:01.147Z,7.40
2018-07-11T00:54:01.153Z,7.30
2018-07-11T00:55:01.206Z,7.50
2018-07-11T00:56:01.257Z,7.00
2018-07-11T00:57:01.160Z,7.50
2018-07-11T00:58:01.159Z,7.00
2018-07-11T00:59:01.141Z,7.50
2018-07-11T01:00:01.263Z,7.30
2018-07-11T01:01:01.238Z,7.50
2018-07-11T01:02:01.161Z,7.40
2018-07-11T01:03:01.196Z,7.60
2018-07-11T01:04:01.166Z,7.40
2018-07-11T01:05:01.205Z,7.30
2018-07-11T01:06:03.094Z,7.80
2018-07-11T01:07:01.116Z,7.70
2018-07-11T01:08:01.136Z,8.00
2018-07-11T01:09:01.125Z,7.90
2018-07-11T01:10:01.109Z,7.10
2018-07-11T01:11:01.117Z,7.10
2018-07-11T01:12:01.381Z,7.70
2018-07-11T01:13:01.120Z,7.20
2018-07-11T01:14:01.107Z,7.10
2018-07-11T01:15:01.158Z,7.20
2018-07-11T01:16:01.102Z,7.40
2018-07-11T01:17:01.140Z,7.30
2018-07-11T01:18:01.174Z,7.60
2018-07-11T01:19:01.132Z,7.50
2018-07-11T01:20:01.158Z,7.30
2018-07-11T01:21:01.167Z,7.20
2018-07-11T01:22:01.154Z,7.00
2018-07-11T01:23:01.151Z,7.20
2018-07-11T01:24:01.194Z,7.70
2018-07-11T01:25:01.231Z,7.30
2018-07-11T01:26:01.156Z,7.70
2018-07-11T01:27:01.229Z,7.00
2018-07-11T01:28:01.155Z,8.00
2018-07-11T01:29:01.222Z,7.10
2018-07-11T01:30:01.171Z,7.40
2018-07-11T01:31:01.235Z,7.50
2018-07-11T01:32:01.185Z,7.40
2018-07-11T01:33:01.207Z,8.00
2018-07-11T01:34:01.228Z,7.30
2018-07-11T01:35:01.175Z,7.90
2018-07-11T01:36:01.239Z,7.40
2018-07-11T01:37:01.233Z,7.90
2018-07-11T01:38:01.197Z,8.30
2018-07-11T01:39:01.144Z,8.10
2018-07-11T01:40:01.244Z,7.70
2018-07-11T01:41:01.188Z,8.00
2018-07-11T01:42:01.142Z,8.00
2018-07-11T01:43:01.239Z,7.60
2018-07-11T01:44:01.298Z,8.40
2018-07-11T01:45:01.414Z,8.60
2018-07-11T01:46:01.356Z,8.80
2018-07-11T01:47:01.179Z,8.10
2018-07-11T01:48:01.145Z,8.60
2018-07-11T01:49:01.219Z,8.60
2018-07-11T01:50:01.169Z,8.30
2018-07-11T01:51:01.182Z,8.80
2018-07-11T01:52:01.153Z,8.00
2018-07-11T01:53:01.263Z,8.20
2018-07-11T01:54:01.185Z,8.80
2018-07-11T01:55:01.264Z,8.80
2018-07-11T01:56:01.210Z,8.70
2018-07-11T01:57:01.192Z,7.60
2018-07-11T01:58:01.221Z,7.90
2018-07-11T01:59:01.144Z,7.90
2018-07-11T02:00:01.288Z,8.50
2018-07-11T02:01:01.195Z,8.70
2018-07-11T02:02:01.246Z,8.70
2018-07-11T02:03:01.188Z,9.00
2018-07-11T02:04:01.301Z,8.70
2018-07-11T02:05:01.274Z,8.50
2018-07-11T02:06:01.206Z,8.20
2018-07-11T02:07:01.167Z,8.50
2018-07-11T02:08:01.270Z,8.80
2018-07-11T02:09:01.201Z,8.70
2018-07-11T02:10:00.961Z,8.30
2018-07-11T02:11:00.942Z,8.50
2018-07-11T02:12:00.949Z,9.10
2018-07-11T02:13:01.050Z,8.70
2018-07-11T02:14:01.088Z,8.60
2018-07-11T02:15:01.035Z,8.60
2018-07-11T02:16:00.940Z,8.70
2018-07-11T02:17:00.977Z,8.50
2018-07-11T02:18:01.009Z,8.80
2018-07-11T02:19:01.049Z,8.10
2018-07-11T02:20:00.955Z,9.60
2018-07-11T02:21:00.938Z,8.40
2018-07-11T02:22:01.095Z,8.40
2018-07-11T02:23:01.004Z,8.80
2018-07-11T02:24:01.022Z,8.60
2018-07-11T02:25:00.968Z,8.50
2018-07-11T02:26:00.981Z,8.60
2018-07-11T02:27:00.999Z,10.00
2018-07-11T02:28:00.973Z,8.90
2018-07-11T02:29:00.966Z,9.00
2018-07-11T02:30:01.101Z,9.20
2018-07-11T02:31:00.994Z,8.50
2018-07-11T02:32:01.008Z,8.70
2018-07-11T02:33:00.910Z,9.90
2018-07-11T02:34:00.953Z,9.80
2018-07-11T02:35:01.036Z,9.30
2018-07-11T02:36:01.024Z,9.40
2018-07-11T02:37:01.023Z,9.20
2018-07-11T02:38:00.975Z,9.00
2018-07-11T02:39:01.046Z,8.90
2018-07-11T02:40:00.770Z,8.60
2018-07-11T02:41:00.793Z,9.00
2018-07-11T02:42:00.836Z,8.90
2018-07-11T02:43:00.906Z,9.00
2018-07-11T02:44:00.823Z,9.70
2018-07-11T02:45:00.827Z,9.50
2018-07-11T02:46:00.743Z,9.20
2018-07-11T02:47:00.973Z,9.50
2018-07-11T02:48:00.796Z,9.00
2018-07-11T02:49:00.892Z,9.20
2018-07-11T02:50:00.881Z,9.00
2018-07-11T02:51:00.814Z,9.50
2018-07-11T02:52:00.872Z,9.70
2018-07-11T02:53:00.899Z,9.20
2018-07-11T02:54:00.782Z,9.60
2018-07-11T02:55:00.861Z,9.50
2018-07-11T02:56:00.952Z,9.60
2018-07-11T02:57:00.770Z,9.70
2018-07-11T02:58:00.830Z,9.20
2018-07-11T02:59:00.773Z,9.80
2018-07-11T03:00:00.841Z,9.80
2018-07-11T03:01:00.814Z,9.80
2018-07-11T03:02:00.841Z,9.40
2018-07-11T03:03:00.804Z,10.20
2018-07-11T03:04:00.957Z,10.30
2018-07-11T03:05:00.805Z,9.90
2018-07-11T03:06:00.782Z,9.80
2018-07-11T03:07:00.827Z,9.80
2018-07-11T03:08:00.893Z,10.00
2018-07-11T03:09:00.837Z,10.50
2018-07-11T03:10:00.725Z,9.90
2018-07-11T03:11:00.744Z,10.50
2018-07-11T03:12:00.715Z,10.10
2018-07-11T03:13:00.664Z,10.80
2018-07-11T03:14:00.807Z,10.10
2018-07-11T03:15:00.709Z,9.70
2018-07-11T03:16:00.780Z,10.70
2018-07-11T03:17:00.765Z,9.80
2018-07-11T03:18:00.796Z,10.90
2018-07-11T03:19:02.696Z,10.80
2018-07-11T03:20:00.779Z,9.70
2018-07-11T03:21:00.787Z,10.20
2018-07-11T03:22:00.839Z,11.10
2018-07-11T03:23:00.762Z,10.40
2018-07-11T03:24:00.763Z,10.80
2018-07-11T03:25:00.685Z,10.40
2018-07-11T03:26:00.794Z,10.60
2018-07-11T03:27:00.707Z,11.00
2018-07-11T03:28:00.720Z,10.60
2018-07-11T03:29:00.717Z,11.00
2018-07-11T03:30:00.722Z,10.00
2018-07-11T03:31:00.837Z,10.30
2018-07-11T03:32:00.709Z,10.10
2018-07-11T03:33:00.724Z,10.90
2018-07-11T03:34:00.744Z,10.60
2018-07-11T03:35:00.745Z,11.00
2018-07-11T03:36:00.760Z,10.50
2018-07-11T03:37:00.714Z,10.90
2018-07-11T03:38:00.749Z,10.10
2018-07-11T03:39:00.931Z,10.20
2018-07-11T03:40:00.796Z,10.50
2018-07-11T03:41:00.701Z,10.70
2018-07-11T03:42:00.657Z,10.60
2018-07-11T03:43:00.695Z,10.30
2018-07-11T03:44:00.652Z,10.80
2018-07-11T03:45:00.701Z,10.60
2018-07-11T03:46:00.668Z,10.60
2018-07-11T03:47:00.699Z,10.90
2018-07-11T03:48:00.653Z,9.90
2018-07-11T03:49:00.702Z,10.70
2018-07-11T03:50:00.706Z,10.80
2018-07-11T03:51:00.765Z,10.70
2018-07-11T03:52:00.738Z,11.10
2018-07-11T03:53:00.819Z,11.60
2018-07-11T03:54:00.734Z,10.70
2018-07-11T03:55:00.773Z,11.20
2018-07-11T03:56:00.759Z,10.30
2018-07-11T03:57:00.704Z,11.00
2018-07-11T03:58:00.747Z,11.40
2018-07-11T03:59:00.698Z,11.80
2018-07-11T04:00:00.805Z,11.20
2018-07-11T04:01:00.740Z,10.70
2018-07-11T04:02:00.708Z,11.10
2018-07-11T04:03:00.786Z,11.00
2018-07-11T04:04:00.939Z,10.10
2018-07-11T04:05:00.735Z,10.20
2018-07-11T04:06:00.716Z,11.40
2018-07-11T04:07:00.715Z,10.30
2018-07-11T04:08:00.728Z,10.50
2018-07-11T04:09:00.782Z,11.40
2018-07-11T04:10:00.713Z,10.00
2018-07-11T04:11:00.642Z,11.40
2018-07-11T04:12:00.235Z,10.30
2018-07-11T04:13:00.644Z,10.60
2018-07-11T04:14:00.667Z,9.90
2018-07-11T04:15:00.673Z,10.60
2018-07-11T04:16:00.632Z,10.50
2018-07-11T04:17:00.655Z,10.20
2018-07-11T04:18:00.697Z,10.10
2018-07-11T04:19:00.714Z,10.30
2018-07-11T04:20:00.647Z,10.70
2018-07-11T04:21:00.727Z,10.20
2018-07-11T04:22:00.665Z,10.40
2018-07-11T04:23:00.675Z,11.00
2018-07-11T04:24:00.723Z,10.60
2018-07-11T04:25:00.720Z,10.10
2018-07-11T04:26:00.733Z,10.40
2018-07-11T04:27:00.678Z,10.10
2018-07-11T04:28:00.724Z,10.00
2018-07-11T04:29:00.766Z,10.80
2018-07-11T04:30:00.708Z,10.10
2018-07-11T04:31:00.716Z,10.10
2018-07-11T04:32:00.699Z,10.30
2018-07-11T04:33:00.998Z,9.40
2018-07-11T04:34:00.785Z,9.60
2018-07-11T04:35:00.978Z,10.70
2018-07-11T04:36:01.379Z,10.40
2018-07-11T04:37:00.802Z,9.70
2018-07-11T04:38:00.773Z,9.80
2018-07-11T04:39:00.962Z,9.60
2018-07-11T04:40:02.128Z,9.50
2018-07-11T04:41:01.254Z,9.90
2018-07-11T04:42:00.704Z,9.30
2018-07-11T04:43:00.720Z,9.50
2018-07-11T04:44:00.684Z,9.90
2018-07-11T04:45:01.235Z,9.50
2018-07-11T04:46:00.735Z,9.60
2018-07-11T04:47:01.102Z,9.80
2018-07-11T04:48:00.727Z,9.00
2018-07-11T04:49:02.256Z,9.40
2018-07-11T04:50:00.772Z,9.50
2018-07-11T04:51:00.716Z,9.90
2018-07-11T04:52:00.689Z,9.50
2018-07-11T04:53:00.737Z,9.30
2018-07-11T04:54:00.798Z,9.10
2018-07-11T04:55:00.761Z,9.30
2018-07-11T04:56:00.733Z,9.30
2018-07-11T04:57:00.770Z,9.90
2018-07-11T04:58:00.741Z,10.00
2018-07-11T04:59:00.667Z,10.40
2018-07-11T05:00:00.709Z,9.30
2018-07-11T05:01:00.647Z,8.90
2018-07-11T05:02:00.640Z,9.50
2018-07-11T05:03:00.085Z,9.40
2018-07-11T05:04:00.747Z,7.90
2018-07-11T05:05:00.673Z,9.00
2018-07-11T05:06:00.781Z,9.70
2018-07-11T05:07:00.795Z,9.10
2018-07-11T05:08:00.691Z,8.30
2018-07-11T05:09:00.475Z,8.40
2018-07-11T05:10:00.578Z,8.70
2018-07-11T05:11:00.491Z,8.60
2018-07-11T05:12:00.562Z,9.20
2018-07-11T05:13:00.488Z,8.30
2018-07-11T05:14:00.510Z,8.80
2018-07-11T05:15:00.894Z,8.00
2018-07-11T05:16:00.962Z,8.30
2018-07-11T05:17:02.759Z,8.50
2018-07-11T05:18:00.917Z,8.70
2018-07-11T05:19:00.465Z,9.60
2018-07-11T05:20:00.165Z,9.10
2018-07-11T05:21:00.596Z,9.20
2018-07-11T05:22:00.526Z,8.40
2018-07-11T05:23:00.612Z,8.70
2018-07-11T05:24:00.384Z,7.80
2018-07-11T05:25:00.968Z,8.60
2018-07-11T05:26:00.438Z,7.70
2018-07-11T05:27:00.514Z,8.50
2018-07-11T05:28:00.630Z,9.30
2018-07-11T05:29:00.613Z,8.30
2018-07-11T05:30:00.541Z,8.80
2018-07-11T05:31:00.672Z,8.70
2018-07-11T05:32:00.420Z,8.60
2018-07-11T05:33:00.516Z,8.90
2018-07-11T05:34:01.275Z,7.90
2018-07-11T05:35:01.265Z,8.00
2018-07-11T05:36:00.485Z,8.30
2018-07-11T05:37:00.967Z,8.00
2018-07-11T05:38:00.044Z,8.20
2018-07-11T05:39:00.107Z,8.60
2018-07-11T05:40:00.457Z,8.40
2018-07-11T05:41:00.353Z,8.50
2018-07-11T05:42:00.455Z,8.10
2018-07-11T05:43:00.432Z,8.20
2018-07-11T05:44:02.208Z,7.90
2018-07-11T05:45:00.543Z,8.40
2018-07-11T05:46:00.540Z,7.90
2018-07-11T05:47:00.474Z,8.50
2018-07-11T05:48:00.508Z,7.90
2018-07-11T05:49:01.234Z,8.80
2018-07-11T05:50:00.474Z,8.20
2018-07-11T05:51:00.485Z,8.40
2018-07-11T05:52:00.515Z,8.40
2018-07-11T05:53:02.569Z,7.40
2018-07-11T05:53:58.883Z,7.60
2018-07-11T05:54:59.685Z,8.10
2018-07-11T05:55:59.611Z,8.30
2018-07-11T05:56:58.886Z,7.60
2018-07-11T05:57:58.898Z,8.20
2018-07-11T05:58:58.881Z,7.60
2018-07-11T05:59:58.898Z,7.80
2018-07-11T06:00:58.889Z,7.20
2018-07-11T06:02:00.017Z,7.80
2018-07-11T06:03:00.179Z,7.70
2018-07-11T06:03:59.968Z,7.70
2018-07-11T06:05:00.396Z,7.50
2018-07-11T06:05:59.954Z,8.50
2018-07-11T06:06:58.865Z,7.70
2018-07-11T06:07:59.981Z,8.30
2018-07-11T06:09:00.334Z,7.70
2018-07-11T06:10:01.054Z,8.00
2018-07-11T06:11:02.591Z,8.30
2018-07-11T06:12:00.080Z,7.60
2018-07-11T06:12:59.975Z,7.80
2018-07-11T06:13:58.867Z,7.90
2018-07-11T06:14:58.865Z,7.60
2018-07-11T06:15:58.843Z,7.90
2018-07-11T06:16:59.594Z,8.50
2018-07-11T06:17:59.849Z,8.00
2018-07-11T06:19:00.212Z,8.00
2018-07-11T06:20:00.189Z,7.80
2018-07-11T06:21:00.497Z,7.80
2018-07-11T06:21:59.917Z,8.00
2018-07-11T06:23:00.278Z,8.10
2018-07-11T06:24:00.307Z,8.40
2018-07-11T06:24:59.917Z,7.80
2018-07-11T06:25:59.605Z,7.70
2018-07-11T06:26:59.609Z,8.60
2018-07-11T06:28:00.821Z,7.60
2018-07-11T06:29:00.787Z,8.30
2018-07-11T06:30:00.812Z,7.90
2018-07-11T06:30:59.927Z,7.90
2018-07-11T06:32:02.486Z,7.70
2018-07-11T06:33:00.316Z,8.30
2018-07-11T06:34:00.321Z,7.60
2018-07-11T06:35:01.020Z,7.70
2018-07-11T06:36:00.436Z,7.50
2018-07-11T06:37:00.444Z,7.80
2018-07-11T06:38:00.411Z,7.50
2018-07-11T06:39:00.732Z,8.10
2018-07-11T06:40:00.785Z,7.30
2018-07-11T06:41:01.092Z,7.70
2018-07-11T06:41:59.860Z,7.90
2018-07-11T06:43:00.267Z,7.80
2018-07-11T06:44:00.487Z,7.70
2018-07-11T06:45:00.240Z,7.80
2018-07-11T06:46:00.207Z,8.00
2018-07-11T06:47:00.288Z,7.90
2018-07-11T06:48:00.477Z,8.50
2018-07-11T06:49:00.224Z,7.90
2018-07-11T06:50:00.497Z,7.60
2018-07-11T06:51:02.668Z,7.70
2018-07-11T06:51:59.849Z,8.50
2018-07-11T06:53:00.806Z,7.40
2018-07-11T06:54:00.189Z,7.50
2018-07-11T06:55:00.254Z,7.70
2018-07-11T06:56:00.280Z,7.40
2018-07-11T06:57:00.268Z,8.10
2018-07-11T06:58:00.256Z,8.30
2018-07-11T06:59:00.230Z,8.20
2018-07-11T07:00:00.275Z,8.40
2018-07-11T07:01:00.246Z,8.00
2018-07-11T07:02:00.309Z,8.30
2018-07-11T07:03:00.551Z,7.60
2018-07-11T07:04:00.295Z,8.70
2018-07-11T07:05:00.258Z,8.10
2018-07-11T07:06:00.828Z,9.20
2018-07-11T07:07:00.412Z,8.10
2018-07-11T07:08:00.308Z,7.80
2018-07-11T07:09:00.342Z,7.70
2018-07-11T07:10:00.333Z,8.60
2018-07-11T07:11:00.495Z,7.50
2018-07-11T07:12:02.489Z,8.30
2018-07-11T07:13:01.053Z,8.60
2018-07-11T07:14:00.087Z,9.50
2018-07-11T07:15:02.602Z,9.40
2018-07-11T07:16:00.234Z,9.60
2018-07-11T07:17:00.502Z,8.80
2018-07-11T07:18:00.556Z,8.90
2018-07-11T07:19:00.763Z,8.70
2018-07-11T07:20:00.450Z,8.20
2018-07-11T07:21:00.256Z,7.40
2018-07-11T07:22:00.253Z,7.80
2018-07-11T07:23:00.195Z,7.70
2018-07-11T07:24:00.284Z,7.80
2018-07-11T07:25:00.242Z,8.00
2018-07-11T07:26:00.298Z,8.10
2018-07-11T07:27:00.228Z,7.70
2018-07-11T07:28:00.242Z,8.30
2018-07-11T07:29:00.338Z,7.00
2018-07-11T07:30:00.504Z,9.20
2018-07-11T07:31:00.449Z,7.80
2018-07-11T07:32:00.325Z,8.90
2018-07-11T07:33:00.249Z,8.90
2018-07-11T07:34:00.554Z,7.70
2018-07-11T07:35:00.511Z,8.20
2018-07-11T07:36:00.294Z,7.50
2018-07-11T07:37:00.544Z,7.40
2018-07-11T07:38:00.807Z,8.30
2018-07-11T07:39:00.809Z,8.20
2018-07-11T07:40:01.438Z,8.40
2018-07-11T07:40:59.806Z,8.00
2018-07-11T07:42:00.550Z,8.10
2018-07-11T07:43:02.833Z,8.00
2018-07-11T07:44:00.627Z,8.80
2018-07-11T07:45:01.010Z,8.50
2018-07-11T07:45:59.873Z,8.20
2018-07-11T07:47:00.589Z,7.30
2018-07-11T07:47:59.854Z,7.30
2018-07-11T07:49:00.659Z,9.00
2018-07-11T07:50:00.359Z,7.50
2018-07-11T07:51:00.889Z,8.00
2018-07-11T07:52:00.839Z,8.20
2018-07-11T07:53:00.513Z,8.40
2018-07-11T07:54:00.895Z,7.70
2018-07-11T07:55:01.957Z,7.40
2018-07-11T07:56:00.380Z,8.40
2018-07-11T07:57:00.345Z,7.70
2018-07-11T07:58:00.558Z,8.00
2018-07-11T07:59:00.529Z,7.70
2018-07-11T08:00:00.121Z,7.80
2018-07-11T08:00:59.895Z,8.10
2018-07-11T08:02:00.275Z,8.30
2018-07-11T08:03:00.870Z,7.80
2018-07-11T08:04:00.541Z,7.70
2018-07-11T08:05:00.571Z,7.60
2018-07-11T08:06:00.284Z,7.40
2018-07-11T08:07:00.616Z,8.20
2018-07-11T08:08:00.310Z,7.90
2018-07-11T08:09:00.545Z,7.70
2018-07-11T08:10:00.601Z,8.80
2018-07-11T08:11:00.281Z,8.20
2018-07-11T08:12:00.301Z,8.00
2018-07-11T08:13:00.796Z,7.50
2018-07-11T08:14:00.805Z,7.80
2018-07-11T08:15:00.323Z,8.10
2018-07-11T08:16:00.302Z,8.40
2018-07-11T08:17:00.561Z,7.80
2018-07-11T08:18:00.467Z,7.90
2018-07-11T08:19:00.383Z,7.80
2018-07-11T08:20:00.838Z,6.70
2018-07-11T08:21:00.532Z,7.60
2018-07-11T08:22:00.679Z,7.30
2018-07-11T08:23:00.314Z,7.30
2018-07-11T08:24:00.843Z,7.30
2018-07-11T08:25:01.274Z,7.00
2018-07-11T08:26:59.815Z,7.20
2018-07-11T08:28:00.176Z,7.30
2018-07-11T08:29:06.820Z,7.40
2018-07-11T08:30:00.780Z,7.20
2018-07-11T08:31:00.521Z,7.60
2018-07-11T08:31:59.900Z,7.40
2018-07-11T08:33:00.280Z,6.70
2018-07-11T08:35:08.484Z,7.50
2018-07-11T08:36:00.320Z,7.70
2018-07-11T08:37:00.310Z,6.90
2018-07-11T08:38:02.138Z,7.20
2018-07-11T08:39:00.280Z,7.30
2018-07-11T08:39:59.930Z,7.10
2018-07-11T08:41:00.318Z,7.70
2018-07-11T08:41:59.900Z,7.40
2018-07-11T08:43:00.092Z,7.10
2018-07-11T08:44:00.488Z,6.90
2018-07-11T08:45:00.006Z,7.30
2018-07-11T08:46:00.398Z,7.00
2018-07-11T08:47:00.483Z,7.50
2018-07-11T08:48:00.432Z,7.40
2018-07-11T08:49:00.440Z,6.60
2018-07-11T08:50:00.133Z,7.60
2018-07-11T08:50:59.855Z,7.90
2018-07-11T08:51:59.863Z,8.10
2018-07-11T08:53:00.263Z,8.50
2018-07-11T08:54:00.001Z,8.30
2018-07-11T08:54:59.823Z,7.70
2018-07-11T08:56:00.481Z,8.50
2018-07-11T08:56:59.865Z,8.80
2018-07-11T08:57:59.822Z,7.90
2018-07-11T08:59:00.284Z,8.20
2018-07-11T08:59:59.875Z,8.30
2018-07-11T09:00:59.818Z,7.50
2018-07-11T09:02:00.599Z,8.00
2018-07-11T09:03:00.239Z,7.30
2018-07-11T09:03:59.845Z,8.80
2018-07-11T09:05:02.553Z,8.60
2018-07-11T09:05:59.993Z,8.20
2018-07-11T09:07:00.325Z,8.90
2018-07-11T09:07:59.852Z,8.50
2018-07-11T09:08:59.960Z,9.00
2018-07-11T09:10:00.124Z,9.20
2018-07-11T09:10:59.848Z,8.30
2018-07-11T09:12:00.492Z,8.70
2018-07-11T09:12:59.952Z,9.20
2018-07-11T09:14:00.289Z,9.50
2018-07-11T09:15:00.271Z,8.00
2018-07-11T09:16:00.402Z,8.10
2018-07-11T09:17:00.714Z,9.00
2018-07-11T09:18:00.496Z,8.40
2018-07-11T09:19:00.386Z,7.80
2018-07-11T09:20:00.371Z,7.80
2018-07-11T09:21:00.376Z,7.90
2018-07-11T09:22:00.113Z,7.50
2018-07-11T09:23:00.167Z,7.60
2018-07-11T09:24:01.061Z,7.50
2018-07-11T09:25:00.338Z,7.80
2018-07-11T09:26:04.230Z,7.20
2018-07-11T09:27:00.137Z,7.70
2018-07-11T09:28:00.024Z,6.80
2018-07-11T09:29:00.483Z,7.30
2018-07-11T09:30:00.074Z,6.60
2018-07-11T09:30:59.810Z,6.60
2018-07-11T09:31:59.885Z,6.80
2018-07-11T09:32:59.996Z,6.90
2018-07-11T09:34:00.397Z,7.40
2018-07-11T09:35:00.322Z,7.20
2018-07-11T09:36:00.526Z,6.90
2018-07-11T09:37:00.306Z,7.30
2018-07-11T09:38:00.506Z,6.80
2018-07-11T09:39:00.304Z,6.30
2018-07-11T09:40:00.526Z,6.40
2018-07-11T09:41:00.287Z,7.10
2018-07-11T09:41:59.876Z,7.10
2018-07-11T09:43:00.328Z,6.50
2018-07-11T09:44:02.228Z,6.60
2018-07-11T09:45:02.347Z,6.50
2018-07-11T09:46:00.310Z,6.50
2018-07-11T09:47:02.388Z,6.00
2018-07-11T09:48:00.315Z,6.90
2018-07-11T09:49:00.510Z,6.60
2018-07-11T09:50:00.514Z,6.20
2018-07-11T09:51:00.508Z,6.70
2018-07-11T09:52:00.309Z,6.10
2018-07-11T09:53:00.659Z,6.10
2018-07-11T09:54:00.238Z,5.90
2018-07-11T09:55:00.516Z,6.10
2018-07-11T09:56:00.515Z,5.70
2018-07-11T09:57:00.395Z,6.60
2018-07-11T09:58:00.365Z,5.70
2018-07-11T09:59:00.795Z,5.40
2018-07-11T10:00:01.004Z,5.70
2018-07-11T10:01:00.354Z,6.00
2018-07-11T10:02:00.345Z,5.80
2018-07-11T10:03:00.396Z,5.60
2018-07-11T10:03:59.830Z,5.60
2018-07-11T10:05:00.852Z,5.60
2018-07-11T10:06:00.326Z,5.30
2018-07-11T10:06:59.898Z,5.30
2018-07-11T10:08:00.507Z,5.30
2018-07-11T10:09:00.352Z,5.40
2018-07-11T10:09:59.856Z,5.40
2018-07-11T10:10:59.912Z,5.00
2018-07-11T10:12:05.369Z,5.30
2018-07-11T10:13:00.592Z,5.10
2018-07-11T10:13:59.991Z,4.90
2018-07-11T10:14:59.917Z,4.50
2018-07-11T10:15:59.793Z,5.40
2018-07-11T10:17:00.766Z,5.10
2018-07-11T10:18:00.009Z,5.40
2018-07-11T10:19:00.323Z,5.80
2018-07-11T10:19:59.978Z,5.40
2018-07-11T10:21:00.521Z,4.70
2018-07-11T10:22:00.850Z,5.00
2018-07-11T10:23:00.270Z,5.30
2018-07-11T10:23:59.962Z,5.00
2018-07-11T10:25:00.020Z,5.00
2018-07-11T10:26:00.039Z,5.40
2018-07-11T10:27:00.396Z,5.20
2018-07-11T10:27:59.924Z,4.90
2018-07-11T10:29:00.432Z,5.50
2018-07-11T10:29:59.792Z,4.80
2018-07-11T10:31:00.369Z,5.00
2018-07-11T10:32:00.583Z,5.70
2018-07-11T10:33:00.320Z,5.20
2018-07-11T10:34:00.611Z,4.80
2018-07-11T10:35:00.328Z,4.80
2018-07-11T10:36:02.379Z,4.50
2018-07-11T10:37:00.410Z,5.20
2018-07-11T10:38:00.390Z,5.30
2018-07-11T10:39:00.360Z,5.40
2018-07-11T10:40:02.622Z,4.90
2018-07-11T10:41:00.381Z,5.20
2018-07-11T10:42:00.032Z,5.70
2018-07-11T10:43:00.532Z,5.30
2018-07-11T10:44:00.649Z,5.70
2018-07-11T10:44:59.991Z,5.90
2018-07-11T10:46:00.020Z,7.00
2018-07-11T10:47:00.394Z,6.60
2018-07-11T10:48:00.417Z,6.40
2018-07-11T10:49:00.363Z,6.20
2018-07-11T10:50:00.327Z,6.40
2018-07-11T10:51:00.354Z,6.30
2018-07-11T10:52:00.329Z,6.30
2018-07-11T10:52:59.897Z,6.80
2018-07-11T10:54:00.575Z,6.60
2018-07-11T10:55:00.539Z,7.60
2018-07-11T10:56:00.418Z,7.70
2018-07-11T10:57:00.455Z,7.20
2018-07-11T10:58:02.426Z,8.00
2018-07-11T10:58:59.189Z,8.70
2018-07-11T10:59:59.924Z,8.40
2018-07-11T11:01:05.702Z,9.10
2018-07-11T11:02:00.059Z,9.30
2018-07-11T11:02:59.901Z,9.50
2018-07-11T11:03:59.986Z,8.90
2018-07-11T11:05:00.335Z,8.80
2018-07-11T11:06:02.213Z,9.50
2018-07-11T11:07:00.573Z,9.00
2018-07-11T11:08:00.615Z,9.50
2018-07-11T11:09:00.557Z,9.50
2018-07-11T11:10:00.600Z,10.50
2018-07-11T11:11:00.561Z,9.00
2018-07-11T11:12:00.610Z,9.00
2018-07-11T11:13:00.440Z,9.60
2018-07-11T11:14:00.679Z,9.80
2018-07-11T11:14:59.899Z,10.10
2018-07-11T11:15:59.806Z,10.40
2018-07-11T11:17:00.714Z,9.70
2018-07-11T11:18:00.036Z,10.10
2018-07-11T11:19:00.032Z,10.80
2018-07-11T11:19:59.927Z,10.50
2018-07-11T11:21:00.050Z,11.70
2018-07-11T11:22:01.041Z,11.20
2018-07-11T11:23:00.105Z,10.30
2018-07-11T11:23:59.882Z,12.20
2018-07-11T11:24:59.888Z,12.20
2018-07-11T11:26:00.546Z,12.30
2018-07-11T11:27:00.050Z,11.70
2018-07-11T11:27:59.974Z,11.90
2018-07-11T11:29:00.353Z,12.60
2018-07-11T11:30:00.395Z,13.00
2018-07-11T11:31:00.323Z,12.80
2018-07-11T11:32:00.408Z,14.50
2018-07-11T11:33:00.366Z,14.80
2018-07-11T11:34:00.320Z,13.70
2018-07-11T11:35:00.397Z,13.70
2018-07-11T11:36:02.209Z,14.40
2018-07-11T11:37:00.330Z,13.40
2018-07-11T11:38:00.417Z,14.30
2018-07-11T11:39:00.419Z,13.60
2018-07-11T11:40:00.369Z,13.80
2018-07-11T11:41:00.412Z,12.90
2018-07-11T11:42:00.665Z,13.30
2018-07-11T11:43:00.752Z,12.40
2018-07-11T11:44:00.425Z,11.60
2018-07-11T11:45:00.423Z,12.50
2018-07-11T11:46:00.551Z,11.60
2018-07-11T11:47:00.424Z,11.00
2018-07-11T11:48:00.364Z,10.50
2018-07-11T11:49:00.348Z,10.60
2018-07-11T11:50:00.367Z,10.70
2018-07-11T11:51:00.606Z,9.80
2018-07-11T11:52:23.427Z,10.40
2018-07-11T11:53:00.379Z,10.40
2018-07-11T11:54:00.335Z,10.30
2018-07-11T11:55:00.372Z,10.80
2018-07-11T11:56:00.014Z,11.10
2018-07-11T11:57:00.328Z,10.30
2018-07-11T11:58:00.568Z,11.10
2018-07-11T11:58:59.949Z,9.90
2018-07-11T12:00:00.398Z,10.60
2018-07-11T12:01:00.358Z,11.30
2018-07-11T12:02:00.027Z,11.00
2018-07-11T12:02:59.939Z,10.60
2018-07-11T12:04:02.209Z,10.20
2018-07-11T12:04:59.990Z,11.80
2018-07-11T12:06:00.338Z,12.30
2018-07-11T12:07:00.420Z,11.70
2018-07-11T12:07:59.967Z,11.80
2018-07-11T12:09:00.434Z,11.20
2018-07-11T12:10:00.462Z,11.80
2018-07-11T12:10:59.949Z,12.20
2018-07-11T12:12:00.488Z,11.70
2018-07-11T12:13:02.445Z,11.80
2018-07-11T12:13:59.997Z,13.00
2018-07-11T12:15:00.388Z,11.80
2018-07-11T12:16:00.498Z,12.70
2018-07-11T12:17:00.204Z,13.00
2018-07-11T12:18:00.262Z,13.90
2018-07-11T12:19:00.045Z,13.20
2018-07-11T12:20:00.067Z,13.30
2018-07-11T12:21:00.362Z,12.70
2018-07-11T12:22:00.511Z,13.00
2018-07-11T12:23:00.074Z,12.00
2018-07-11T12:24:00.551Z,12.60
2018-07-11T12:24:59.963Z,13.50
2018-07-11T12:26:00.317Z,13.40
2018-07-11T12:27:00.317Z,14.10
2018-07-11T12:28:00.322Z,15.30
2018-07-11T12:28:59.884Z,13.90
2018-07-11T12:30:00.092Z,14.10
2018-07-11T12:31:00.351Z,14.90
2018-07-11T12:32:00.406Z,13.20
2018-07-11T12:33:00.295Z,14.50
2018-07-11T12:34:06.614Z,14.30
2018-07-11T12:35:00.943Z,14.40
2018-07-11T12:36:00.767Z,14.40
2018-07-11T12:37:01.056Z,13.70
2018-07-11T12:38:00.613Z,14.70
2018-07-11T12:39:00.661Z,13.90
2018-07-11T12:40:00.774Z,14.30
2018-07-11T12:41:02.909Z,14.10
2018-07-11T12:42:00.619Z,13.70
2018-07-11T12:43:23.713Z,13.50
2018-07-11T12:43:59.999Z,14.70
2018-07-11T12:45:00.915Z,15.10
2018-07-11T12:46:00.660Z,14.50
2018-07-11T12:47:00.525Z,13.80
2018-07-11T12:48:00.669Z,14.70
2018-07-11T12:49:00.658Z,14.10
2018-07-11T12:50:00.020Z,13.70
2018-07-11T12:51:00.637Z,14.10
2018-07-11T12:52:00.626Z,14.30
2018-07-11T12:53:00.401Z,14.30
2018-07-11T12:54:00.382Z,14.20
2018-07-11T12:55:00.625Z,14.70
2018-07-11T12:56:00.620Z,15.30
2018-07-11T12:57:00.919Z,15.00
2018-07-11T12:58:02.523Z,17.00
2018-07-11T12:59:00.624Z,15.70
2018-07-11T13:00:00.963Z,17.50
2018-07-11T13:01:00.627Z,16.50
2018-07-11T13:02:00.420Z,17.30
2018-07-11T13:03:00.926Z,16.40
2018-07-11T13:04:00.339Z,16.90
2018-07-11T13:05:00.057Z,15.20
2018-07-11T13:06:02.774Z,16.40
2018-07-11T13:07:00.387Z,16.40
2018-07-11T13:08:00.625Z,17.00
2018-07-11T13:09:01.033Z,18.10
2018-07-11T13:10:00.632Z,17.00
2018-07-11T13:11:00.967Z,18.00
2018-07-11T13:12:01.044Z,16.50
2018-07-11T13:13:00.042Z,17.90